Avilla, Missouri
Current Conditions -  °F | °C
As of 12:53 AM on Wednesday 22 Oct 2014 (Local Time) from KJLN Reporting Station
Clear Clear  
Wind Chill: 13°   Ceiling: Unl
Heat Index: 13°   Visibility: 10mi
Dew Point:   Wind: 7mph
Humidity: 72%   Direction: 110°ESE
Pressure: 30.1"   Gusts: NA
Location:  37.2°N, 94.13°W
Report Text: KJLN 220553Z AUTO 11006KT 10SM CLR 13/08 A3010 RMK AO2 SLP188 T01330083 10189 20128 402440089 58002
Loading
Personal Weather Stations






























Interactive Weather Map
Tropical Storm Tracking
New forecast layout! Learn more

10-Day Weather Forecast

Advertisements
Track Severe Weather on mobile